Time;durP1;ratioP1;P1;durP2;ratioP2;P2;SDS_P1;SDS_P2;PMS_P1;PMS_P2;Temp;Humidity;BMP_temperature;BMP_pressure;BME280_temperature;BME280_humidity;BME280_pressure;Samples;Min_cycle;Max_cycle;Signal;HPM_P1;HPM_P2
2022/01/27 00:03:24;;;;;;;28.30;14.30;;;;;;;0.90;79.83;99413.70;106058;1271;113762;-71
2022/01/27 00:05:56;;;;;;;29.00;14.00;;;;;;;0.93;80.10;99424.83;106094;1274;99202;-70
2022/01/27 00:08:53;;;;;;;28.90;13.20;;;;;;;0.93;79.94;99424.81;106055;1274;107756;-70
2022/01/27 00:11:15;;;;;;;28.20;13.00;;;;;;;0.90;79.92;99429.08;106010;1274;99335;-70
2022/01/27 00:13:47;;;;;;;27.30;13.30;;;;;;;0.87;80.11;99429.84;106079;1274;99240;-70
2022/01/27 00:16:24;;;;;;;28.10;13.30;;;;;;;0.85;79.80;99432.34;106068;1274;112832;-70
2022/01/27 00:18:54;;;;;;;29.80;14.00;;;;;;;0.83;79.99;99426.81;106084;1274;99298;-70
2022/01/27 00:21:29;;;;;;;27.90;12.90;;;;;;;0.81;80.08;99429.48;106056;1274;107738;-71
2022/01/27 00:23:58;;;;;;;30.60;13.50;;;;;;;0.79;79.95;99431.83;106227;1274;99310;-72
2022/01/27 00:26:26;;;;;;;29.20;14.20;;;;;;;0.79;79.97;99430.94;106010;1274;99297;-71
2022/01/27 00:28:54;;;;;;;30.30;13.50;;;;;;;0.80;79.87;99434.08;106019;1274;112627;-70
2022/01/27 00:31:24;;;;;;;29.30;14.20;;;;;;;0.79;79.85;99431.13;106050;1274;100042;-71
2022/01/27 00:33:54;;;;;;;28.20;13.60;;;;;;;0.78;79.97;99435.69;106112;1274;108409;-71
2022/01/27 00:36:22;;;;;;;26.90;13.10;;;;;;;0.79;80.01;99431.13;106057;1274;99249;-71
2022/01/27 00:38:51;;;;;;;28.40;13.40;;;;;;;0.79;80.06;99437.06;106092;1274;98720;-70
2022/01/27 00:41:22;;;;;;;27.10;12.40;;;;;;;0.79;80.12;99435.31;106147;1274;112689;-69
2022/01/27 00:43:52;;;;;;;26.10;12.90;;;;;;;0.80;79.96;99437.73;106142;1274;99918;-70
2022/01/27 00:46:20;;;;;;;29.50;12.80;;;;;;;0.80;80.00;99438.95;106100;1274;108615;-69
2022/01/27 00:48:50;;;;;;;27.70;11.90;;;;;;;0.81;79.86;99438.76;106163;1274;99342;-70
2022/01/27 00:51:22;;;;;;;26.90;12.30;;;;;;;0.81;79.94;99439.81;106152;1274;99924;-70
2022/01/27 00:54:35;;;;;;;26.90;11.50;;;;;;;0.82;79.93;99439.05;106178;1274;112390;-72
2022/01/27 00:56:56;;;;;;;27.30;13.00;;;;;;;0.81;80.02;99443.27;106060;1274;100431;-72
2022/01/27 01:02:35;;;;;;;25.70;11.70;;;;;;;0.82;80.08;99451.82;106057;1274;99240;-71
2022/01/27 01:07:38;;;;;;;26.30;11.90;;;;;;;0.82;79.78;99454.61;106060;1274;114161;-71
2022/01/27 01:15:46;;;;;;;27.40;11.70;;;;;;;0.78;79.80;99451.73;106110;1274;96749;-71
2022/01/27 01:21:23;;;;;;;27.50;12.50;;;;;;;0.78;79.81;99450.54;106228;1274;112680;-70
2022/01/27 01:29:54;;;;;;;25.30;11.30;;;;;;;0.74;79.84;99435.96;106211;1274;99221;-71
2022/01/27 01:32:42;;;;;;;26.50;11.70;;;;;;;0.71;79.74;99433.77;106260;1274;99243;-71
2022/01/27 01:35:08;;;;;;;25.60;11.90;;;;;;;0.69;79.77;99432.41;106239;1274;112762;-72
2022/01/27 01:37:41;;;;;;;27.10;12.40;;;;;;;0.68;79.89;99430.17;106252;1274;99320;-71
2022/01/27 01:40:16;;;;;;;25.30;11.20;;;;;;;0.67;79.85;99421.64;106224;1274;107743;-71
2022/01/27 01:42:46;;;;;;;29.30;13.20;;;;;;;0.68;79.89;99421.80;106233;1273;99222;-72
2022/01/27 01:45:17;;;;;;;25.80;12.00;;;;;;;0.67;79.88;99416.23;106315;1274;99125;-73
2022/01/27 01:47:49;;;;;;;24.20;11.30;;;;;;;0.65;79.89;99414.37;106239;1274;112778;-73
2022/01/27 01:50:16;;;;;;;28.60;12.00;;;;;;;0.64;79.84;99414.92;106211;1274;99326;-73
2022/01/27 01:52:46;;;;;;;28.80;11.90;;;;;;;0.62;79.85;99411.83;106201;1274;107813;-72
2022/01/27 01:55:15;;;;;;;26.90;12.30;;;;;;;0.58;79.79;99410.73;106119;1274;99901;-72
2022/01/27 01:57:43;;;;;;;29.20;12.30;;;;;;;0.56;79.78;99408.86;106190;1274;99243;-72
2022/01/27 02:00:14;;;;;;;24.90;11.40;;;;;;;0.56;79.81;99404.13;106120;1274;112742;-71
2022/01/27 02:02:41;;;;;;;26.90;12.40;;;;;;;0.58;79.78;99396.59;106154;1274;99264;-72
2022/01/27 02:05:11;;;;;;;26.80;11.80;;;;;;;0.59;79.92;99396.73;106000;1274;107711;-71
2022/01/27 02:08:02;;;;;;;30.00;13.20;;;;;;;0.58;79.80;99392.20;106033;1274;99329;-72
2022/01/27 02:17:50;;;;;;;25.40;12.20;;;;;;;0.60;79.83;99395.85;106132;1274;97729;-72
2022/01/27 02:19:17;;;;;;;29.90;12.40;;;;;;;0.56;79.80;99387.39;106304;1274;107671;-71
2022/01/27 02:21:57;;;;;;;27.50;12.70;;;;;;;0.53;79.65;99384.51;106207;1274;99673;-70
2022/01/27 02:24:31;;;;;;;27.90;12.00;;;;;;;0.52;79.82;99384.18;106239;1274;99230;-70
2022/01/27 02:27:01;;;;;;;27.40;12.90;;;;;;;0.52;79.74;99378.77;106181;1274;112731;-71
2022/01/27 02:29:31;;;;;;;25.60;11.90;;;;;;;0.53;79.99;99371.94;106246;1274;96633;-70
2022/01/27 02:32:01;;;;;;;27.10;11.40;;;;;;;0.54;79.95;99371.92;106137;1274;107628;-70
2022/01/27 02:34:31;;;;;;;26.10;12.20;;;;;;;0.54;79.86;99365.45;106128;1274;99317;-69
2022/01/27 02:36:58;;;;;;;31.10;12.80;;;;;;;0.55;79.87;99362.80;106139;1274;96616;-72
2022/01/27 02:39:26;;;;;;;27.10;11.40;;;;;;;0.58;79.89;99363.77;106146;1274;112777;-71
2022/01/27 02:41:58;;;;;;;28.10;12.20;;;;;;;0.58;79.83;99362.73;106171;1274;99945;-69
2022/01/27 02:44:32;;;;;;;26.50;11.50;;;;;;;0.57;79.75;99360.48;106109;1274;107764;-71
2022/01/27 02:47:01;;;;;;;25.80;9.80;;;;;;;0.60;79.95;99362.50;106095;1274;98323;-71
2022/01/27 02:49:29;;;;;;;27.60;12.00;;;;;;;0.63;79.82;99360.85;106166;1274;99330;-68
2022/01/27 02:51:57;;;;;;;25.90;11.30;;;;;;;0.61;79.77;99364.75;106075;1274;112030;-70
2022/01/27 02:54:27;;;;;;;27.00;11.90;;;;;;;0.59;79.88;99366.18;106165;1274;99229;-71
2022/01/27 02:57:14;;;;;;;28.10;11.70;;;;;;;0.59;79.87;99368.12;106197;1274;107764;-72
2022/01/27 02:59:42;;;;;;;25.20;10.60;;;;;;;0.59;79.84;99363.75;106238;1274;96660;-71
2022/01/27 03:02:10;;;;;;;28.30;12.70;;;;;;;0.60;79.93;99359.20;106132;1274;99266;-72
2022/01/27 03:04:38;;;;;;;25.70;12.30;;;;;;;0.60;79.45;99360.58;106069;1274;113836;-71
2022/01/27 03:07:11;;;;;;;26.50;11.70;;;;;;;0.60;79.86;99362.17;106111;1274;99259;-71
2022/01/27 03:09:39;;;;;;;23.90;10.90;;;;;;;0.60;79.73;99356.40;106091;1274;107743;-70
2022/01/27 03:12:11;;;;;;;25.30;11.20;;;;;;;0.60;79.78;99357.44;106081;1277;99304;-72
2022/01/27 03:14:42;;;;;;;25.90;11.80;;;;;;;0.60;79.60;99360.77;106194;1274;99189;-69
2022/01/27 03:17:13;;;;;;;26.60;11.80;;;;;;;0.59;79.63;99365.67;106096;1274;111906;-70
2022/01/27 03:19:43;;;;;;;26.10;10.40;;;;;;;0.59;79.61;99368.29;106086;1274;99228;-70
2022/01/27 03:22:11;;;;;;;26.40;11.80;;;;;;;0.59;79.71;99364.79;106155;1274;107443;-69
2022/01/27 03:24:42;;;;;;;25.20;10.80;;;;;;;0.59;79.57;99360.45;106204;1274;99296;-71
2022/01/27 03:27:17;;;;;;;25.30;11.10;;;;;;;0.59;79.71;99360.61;106268;1274;99271;-70
2022/01/27 03:29:45;;;;;;;23.40;10.50;;;;;;;0.58;79.70;99363.95;106235;1274;112765;-70
2022/01/27 03:32:13;;;;;;;27.00;12.40;;;;;;;0.58;79.64;99360.11;106148;1274;158583;-70
2022/01/27 03:34:44;;;;;;;25.60;12.40;;;;;;;0.58;79.71;99359.94;106176;1274;109001;-71
2022/01/27 03:37:13;;;;;;;29.30;12.50;;;;;;;0.59;79.57;99349.98;106173;1274;96651;-70
2022/01/27 03:39:42;;;;;;;23.90;11.20;;;;;;;0.58;79.58;99345.61;106189;1274;97744;-69
2022/01/27 03:42:12;;;;;;;25.90;11.80;;;;;;;0.57;79.63;99342.67;106230;1273;111763;-71
2022/01/27 03:44:40;;;;;;;27.40;12.70;;;;;;;0.57;79.47;99342.33;106208;1274;99371;-72
2022/01/27 03:47:08;;;;;;;26.70;12.40;;;;;;;0.57;79.58;99336.92;106184;1274;107746;-70
2022/01/27 03:49:36;;;;;;;25.40;11.90;;;;;;;0.58;79.67;99335.15;106183;1273;96653;-70
2022/01/27 03:52:05;;;;;;;28.90;13.90;;;;;;;0.57;79.49;99334.30;106170;1274;99291;-70
2022/01/27 03:54:32;;;;;;;24.40;10.80;;;;;;;0.57;79.51;99334.65;106150;1274;111903;-70
2022/01/27 03:57:01;;;;;;;26.90;12.90;;;;;;;0.58;79.55;99333.23;106105;1274;99181;-69
2022/01/27 03:59:30;;;;;;;26.70;11.60;;;;;;;0.61;79.62;99327.20;106122;1274;107703;-69
2022/01/27 04:01:58;;;;;;;25.40;11.30;;;;;;;0.63;79.49;99327.86;106126;1273;99200;-69
2022/01/27 04:04:29;;;;;;;24.70;10.70;;;;;;;0.64;79.57;99327.14;106157;1274;99232;-69
2022/01/27 04:07:02;;;;;;;26.90;10.90;;;;;;;0.64;79.51;99324.00;106163;1274;112477;-71
2022/01/27 04:09:32;;;;;;;25.80;10.90;;;;;;;0.64;79.37;99321.72;106209;1274;97547;-69
2022/01/27 04:12:00;;;;;;;23.90;9.10;;;;;;;0.63;79.39;99319.13;106171;1274;107649;-69
2022/01/27 04:14:28;;;;;;;25.70;11.30;;;;;;;0.62;79.41;99316.52;106188;1274;99323;-69
2022/01/27 04:16:55;;;;;;;26.60;11.40;;;;;;;0.64;79.49;99313.86;106227;1274;99300;-71
2022/01/27 04:19:26;;;;;;;24.10;11.10;;;;;;;0.65;79.50;99316.27;106183;1274;112593;-70
2022/01/27 04:21:53;;;;;;;25.20;10.90;;;;;;;0.65;79.50;99316.64;106154;1274;99373;-69
2022/01/27 04:24:21;;;;;;;27.10;12.50;;;;;;;0.65;79.22;99316.80;106118;1274;107707;-71
2022/01/27 04:26:57;;;;;;;29.10;13.00;;;;;;;0.63;79.50;99317.55;106130;1274;99175;-72
2022/01/27 04:29:25;;;;;;;27.40;13.40;;;;;;;0.65;79.50;99320.82;106170;1274;99316;-70
2022/01/27 04:31:56;;;;;;;27.80;12.60;;;;;;;0.66;79.59;99323.23;106120;1273;111814;-71
2022/01/27 04:34:31;;;;;;;36.70;16.70;;;;;;;0.66;79.29;99320.45;106145;1274;100328;-71
2022/01/27 04:36:59;;;;;;;33.10;16.10;;;;;;;0.65;79.40;99327.27;106210;1274;107616;-71
2022/01/27 04:39:43;;;;;;;34.60;17.60;;;;;;;0.65;79.38;99325.19;106143;1274;99208;-71
2022/01/27 04:42:24;;;;;;;36.40;16.90;;;;;;;0.65;79.39;99321.68;106215;1274;99203;-72
2022/01/27 04:45:15;;;;;;;34.50;16.80;;;;;;;0.66;79.32;99322.71;106222;1274;112824;-69
2022/01/27 04:47:49;;;;;;;35.30;18.00;;;;;;;0.66;79.50;99320.97;106132;1274;96541;-70
2022/01/27 04:50:19;;;;;;;37.90;17.90;;;;;;;0.67;79.30;99315.36;106090;1274;107721;-71
2022/01/27 04:52:50;;;;;;;33.60;17.70;;;;;;;0.68;79.51;99314.80;106193;1274;99297;-71
2022/01/27 04:55:22;;;;;;;34.30;17.80;;;;;;;0.70;79.51;99305.67;106233;1273;99354;-70
2022/01/27 04:58:05;;;;;;;34.90;16.70;;;;;;;0.70;79.38;99310.90;106181;1274;112871;-71
2022/01/27 05:00:38;;;;;;;32.60;17.20;;;;;;;0.70;79.34;99310.02;106185;1274;100251;-70
2022/01/27 05:03:21;;;;;;;35.10;16.60;;;;;;;0.69;79.42;99311.63;106270;1274;107741;-71
2022/01/27 05:05:53;;;;;;;36.60;18.50;;;;;;;0.68;79.25;99310.80;106150;1274;99265;-68
2022/01/27 05:08:26;;;;;;;36.30;18.50;;;;;;;0.66;79.32;99309.96;106146;1274;99222;-71
2022/01/27 05:11:09;;;;;;;35.00;17.20;;;;;;;0.66;79.32;99306.65;106114;1274;112766;-71
2022/01/27 05:13:53;;;;;;;35.30;17.50;;;;;;;0.66;79.30;99300.71;106171;1273;96605;-69
2022/01/27 05:16:23;;;;;;;33.70;16.60;;;;;;;0.66;79.24;99300.36;106004;1274;107728;-70
2022/01/27 05:18:51;;;;;;;33.60;17.60;;;;;;;0.68;79.19;99295.61;106113;1274;99327;-69
2022/01/27 05:21:19;;;;;;;37.30;16.70;;;;;;;0.68;79.15;99297.70;106067;1274;99310;-70
2022/01/27 05:23:49;;;;;;;34.10;16.70;;;;;;;0.68;79.36;99297.70;106133;1274;113400;-70
2022/01/27 05:26:17;;;;;;;34.00;18.30;;;;;;;0.69;79.37;99294.52;106159;1274;99080;-72
2022/01/27 05:28:45;;;;;;;33.10;18.50;;;;;;;0.71;79.35;99300.06;106182;1274;106698;-70
2022/01/27 05:31:13;;;;;;;32.00;16.20;;;;;;;0.72;79.40;99302.30;106135;1274;97322;-69
2022/01/27 05:33:41;;;;;;;33.90;17.30;;;;;;;0.72;79.29;99310.15;106132;1274;99271;-69
2022/01/27 05:36:09;;;;;;;33.70;16.10;;;;;;;0.73;79.23;99311.86;106040;1274;112631;-71
2022/01/27 05:38:39;;;;;;;34.10;16.30;;;;;;;0.73;79.10;99302.80;106114;1274;99323;-71
2022/01/27 05:41:06;;;;;;;36.00;18.20;;;;;;;0.73;79.21;99299.48;106028;1274;107746;-72
2022/01/27 05:43:34;;;;;;;33.80;16.40;;;;;;;0.76;79.39;99297.65;106101;1274;99167;-72
2022/01/27 05:46:06;;;;;;;30.70;16.10;;;;;;;0.77;79.37;99296.57;106089;1273;97685;-70
2022/01/27 05:48:34;;;;;;;30.10;13.90;;;;;;;0.79;79.42;99293.73;106080;1274;111668;-72
2022/01/27 05:51:04;;;;;;;35.10;18.20;;;;;;;0.80;79.24;99300.16;106056;1274;99179;-71
2022/01/27 05:53:32;;;;;;;36.90;19.80;;;;;;;0.77;79.04;99295.70;106041;1274;107716;-71
2022/01/27 05:56:05;;;;;;;33.40;16.60;;;;;;;0.76;79.18;99292.61;106115;1274;99093;-70
2022/01/27 05:58:33;;;;;;;36.50;18.60;;;;;;;0.76;79.20;99292.41;106068;1274;97658;-70
2022/01/27 06:01:01;;;;;;;35.90;18.50;;;;;;;0.77;79.24;99293.95;106032;1274;112624;-72
2022/01/27 06:03:29;;;;;;;34.60;18.10;;;;;;;0.79;79.17;99291.13;106084;1274;99197;-71
2022/01/27 06:05:58;;;;;;;38.30;18.50;;;;;;;0.79;79.27;99286.75;106067;1274;107978;-71
2022/01/27 06:08:30;;;;;;;35.50;17.20;;;;;;;0.80;79.24;99289.87;105982;1274;96626;-70
2022/01/27 06:10:58;;;;;;;36.70;18.20;;;;;;;0.78;79.17;99286.58;106059;1274;99894;-71
2022/01/27 06:13:29;;;;;;;38.80;20.00;;;;;;;0.77;79.16;99278.08;106099;1274;112562;-68
2022/01/27 06:15:57;;;;;;;37.60;20.30;;;;;;;0.77;79.40;99274.57;106118;1274;99268;-68
2022/01/27 06:18:27;;;;;;;38.90;20.20;;;;;;;0.78;79.11;99273.88;106192;1274;107725;-69
2022/01/27 06:21:00;;;;;;;39.40;21.30;;;;;;;0.77;79.09;99273.35;106241;1274;99316;-71
2022/01/27 06:23:32;;;;;;;36.80;19.30;;;;;;;0.77;79.24;99270.21;106225;1274;99279;-69
2022/01/27 06:26:06;;;;;;;34.70;17.90;;;;;;;0.79;79.20;99273.66;106146;1274;111716;-70
2022/01/27 06:28:34;;;;;;;37.70;20.40;;;;;;;0.80;79.26;99274.32;106120;1274;99268;-71
2022/01/27 06:31:04;;;;;;;37.20;19.50;;;;;;;0.82;79.31;99272.15;106098;1274;107656;-68
2022/01/27 06:33:33;;;;;;;35.30;17.30;;;;;;;0.83;79.00;99271.79;106124;1274;100102;-71
2022/01/27 06:36:00;;;;;;;34.90;19.10;;;;;;;0.83;79.16;99265.15;106159;1274;100347;-71
2022/01/27 06:38:28;;;;;;;36.00;18.30;;;;;;;0.83;78.95;99257.29;106234;1274;112726;-71
2022/01/27 06:40:56;;;;;;;33.50;18.10;;;;;;;0.84;79.07;99254.47;106276;1274;99217;-70
2022/01/27 06:43:24;;;;;;;32.50;17.90;;;;;;;0.85;79.14;99256.19;106252;1274;107799;-70
2022/01/27 06:45:54;;;;;;;39.60;20.70;;;;;;;0.85;79.16;99250.58;106217;1274;99355;-70
2022/01/27 06:48:22;;;;;;;35.20;17.10;;;;;;;0.87;78.98;99254.55;106264;1274;99407;-72
2022/01/27 06:50:54;;;;;;;32.20;17.30;;;;;;;0.87;79.15;99255.06;106216;1274;112667;-70
2022/01/27 06:53:25;;;;;;;34.50;17.20;;;;;;;0.87;79.19;99250.52;106177;1274;99237;-71
2022/01/27 06:55:55;;;;;;;32.50;17.00;;;;;;;0.89;79.20;99253.60;106088;1274;107747;-70
2022/01/27 06:58:23;;;;;;;34.00;17.30;;;;;;;0.91;78.99;99251.30;106024;1274;97958;-71
2022/01/27 07:00:51;;;;;;;31.50;15.40;;;;;;;0.93;79.06;99252.13;106033;1274;99215;-70
2022/01/27 07:03:20;;;;;;;35.20;17.20;;;;;;;0.94;79.09;99245.27;106207;1274;112753;-70
2022/01/27 07:05:51;;;;;;;29.30;14.20;;;;;;;0.96;79.19;99246.44;106082;1274;99328;-71
2022/01/27 07:08:18;;;;;;;31.80;14.90;;;;;;;0.96;78.85;99243.47;106090;1274;108184;-71
2022/01/27 07:10:46;;;;;;;34.60;17.30;;;;;;;0.96;79.11;99236.13;106077;1273;99252;-72
2022/01/27 07:13:17;;;;;;;34.40;17.60;;;;;;;0.95;78.94;99230.91;106086;1274;99278;-72
2022/01/27 07:15:45;;;;;;;29.70;14.20;;;;;;;0.96;78.96;99223.37;106093;1274;111392;-71
2022/01/27 07:18:13;;;;;;;31.20;14.80;;;;;;;0.99;78.96;99229.77;106093;1274;97224;-71
2022/01/27 07:20:41;;;;;;;31.90;15.70;;;;;;;1.00;78.89;99226.23;106099;1274;107518;-71
2022/01/27 07:23:12;;;;;;;29.50;14.70;;;;;;;1.01;78.93;99226.73;106085;1273;99320;-70
2022/01/27 07:25:40;;;;;;;29.50;13.10;;;;;;;1.02;78.82;99220.71;106112;1274;99321;-69
2022/01/27 07:28:08;;;;;;;30.00;14.20;;;;;;;1.06;78.78;99216.08;106148;1273;112645;-72
2022/01/27 07:30:36;;;;;;;26.00;11.80;;;;;;;1.09;79.03;99215.83;106207;1274;99300;-71
2022/01/27 07:33:03;;;;;;;28.30;13.70;;;;;;;1.10;78.86;99210.20;106113;1274;107393;-71
2022/01/27 07:35:32;;;;;;;28.10;14.10;;;;;;;1.10;78.99;99203.06;106123;1274;99220;-71
2022/01/27 07:38:02;;;;;;;27.90;13.40;;;;;;;1.12;78.59;99201.59;106107;1273;96568;-71
2022/01/27 07:40:30;;;;;;;27.20;13.40;;;;;;;1.15;78.77;99193.11;106156;1273;112758;-71
2022/01/27 07:43:18;;;;;;;25.30;12.20;;;;;;;1.17;78.88;99193.55;106125;1274;99345;-72
2022/01/27 07:45:46;;;;;;;28.00;12.70;;;;;;;1.19;78.76;99191.39;105969;1274;107795;-69
2022/01/27 07:48:14;;;;;;;28.10;12.30;;;;;;;1.22;78.85;99196.39;106092;1274;99084;-69
2022/01/27 07:50:47;;;;;;;26.50;12.70;;;;;;;1.22;78.71;99195.87;106088;1274;99164;-68
2022/01/27 07:53:15;;;;;;;25.70;10.20;;;;;;;1.22;78.90;99190.06;105984;1274;113333;-70
2022/01/27 07:55:42;;;;;;;25.60;11.90;;;;;;;1.25;78.86;99191.73;106100;1274;99332;-70
2022/01/27 07:58:11;;;;;;;24.80;12.00;;;;;;;1.27;78.84;99189.22;107166;1273;108763;-70
2022/01/27 08:00:41;;;;;;;24.30;11.60;;;;;;;1.29;78.76;99193.36;106203;1274;99303;-69
2022/01/27 08:03:09;;;;;;;24.30;11.70;;;;;;;1.28;78.65;99188.84;106118;1274;99189;-70
2022/01/27 08:05:40;;;;;;;23.50;10.80;;;;;;;1.28;78.64;99184.80;106048;1272;112409;-71
2022/01/27 08:08:08;;;;;;;24.40;11.70;;;;;;;1.31;78.63;99184.70;106237;1274;99132;-69
2022/01/27 08:10:39;;;;;;;25.10;11.20;;;;;;;1.34;78.70;99190.73;106235;1274;106486;-69
2022/01/27 08:13:09;;;;;;;26.20;10.10;;;;;;;1.36;78.79;99196.63;106272;1274;99339;-71
2022/01/27 08:15:37;;;;;;;24.50;11.10;;;;;;;1.37;78.83;99198.16;106084;1274;98372;-70
2022/01/27 08:18:05;;;;;;;29.00;11.50;;;;;;;1.38;78.85;99188.88;106151;1272;111720;-71
2022/01/27 08:20:33;;;;;;;25.10;11.20;;;;;;;1.40;78.74;99189.49;106161;1274;99332;-70
2022/01/27 08:23:02;;;;;;;26.00;11.30;;;;;;;1.42;78.93;99190.66;106133;1274;107702;-69
2022/01/27 08:25:35;;;;;;;26.50;12.30;;;;;;;1.45;78.73;99185.65;106100;1274;99485;-71
2022/01/27 08:28:06;;;;;;;25.30;11.50;;;;;;;1.47;78.53;99177.02;106204;1274;99211;-69
2022/01/27 08:30:42;;;;;;;24.90;11.70;;;;;;;1.48;78.91;99176.12;106091;1274;112800;-71
2022/01/27 08:33:17;;;;;;;23.80;10.90;;;;;;;1.48;78.58;99171.04;106210;1274;98341;-71
2022/01/27 08:35:47;;;;;;;23.80;10.10;;;;;;;1.50;78.76;99171.16;106143;1274;106853;-72
2022/01/27 08:38:15;;;;;;;22.90;9.50;;;;;;;1.51;78.91;99167.48;106202;1274;99240;-71
2022/01/27 08:40:43;;;;;;;25.00;10.50;;;;;;;1.54;78.63;99169.28;106051;1272;99300;-70
2022/01/27 08:43:11;;;;;;;22.30;9.60;;;;;;;1.56;78.65;99166.08;105948;1273;111394;-74
2022/01/27 08:45:42;;;;;;;24.50;10.40;;;;;;;1.58;78.89;99166.86;106207;1273;99248;-74
2022/01/27 08:48:32;;;;;;;21.60;10.30;;;;;;;1.60;78.67;99160.17;106156;1274;107746;-74
2022/01/27 08:51:04;;;;;;;21.90;9.50;;;;;;;1.62;78.77;99155.90;106156;1274;99217;-76
2022/01/27 08:53:57;;;;;;;23.70;9.60;;;;;;;1.64;78.66;99161.21;106160;1274;99232;-76
2022/01/27 08:56:25;;;;;;;23.60;10.20;;;;;;;1.66;78.65;99161.71;106003;1274;113813;-74
2022/01/27 08:58:56;;;;;;;22.90;10.20;;;;;;;1.67;78.60;99163.93;106237;1274;99301;-72
2022/01/27 09:01:26;;;;;;;22.10;10.30;;;;;;;1.70;78.76;99166.29;106113;1274;107656;-73
2022/01/27 09:03:59;;;;;;;21.40;9.80;;;;;;;1.71;78.78;99164.86;106079;1274;99216;-73
2022/01/27 09:06:30;;;;;;;24.90;10.40;;;;;;;1.72;78.61;99162.38;106192;1274;96651;-72
2022/01/27 09:08:59;;;;;;;21.50;9.30;;;;;;;1.73;78.44;99166.89;106196;1273;112536;-73
2022/01/27 09:11:31;;;;;;;20.20;9.40;;;;;;;1.74;78.61;99169.14;106092;1274;99185;-73
2022/01/27 09:14:01;;;;;;;23.20;10.30;;;;;;;1.75;78.65;99173.63;106199;1273;106073;-73
2022/01/27 09:16:35;;;;;;;23.20;11.10;;;;;;;1.76;78.46;99169.77;106098;1274;99311;-75
2022/01/27 09:19:26;;;;;;;22.30;9.30;;;;;;;1.77;78.85;99162.37;106086;1274;99325;-73
2022/01/27 09:21:56;;;;;;;21.50;9.20;;;;;;;1.78;78.52;99156.93;106173;1274;112672;-74
2022/01/27 09:24:29;;;;;;;21.50;9.60;;;;;;;1.80;78.53;99161.60;106141;1274;99249;-74
2022/01/27 09:27:01;;;;;;;21.60;9.00;;;;;;;1.80;78.38;99165.44;106206;1274;107850;-73
2022/01/27 09:29:35;;;;;;;21.80;9.10;;;;;;;1.82;78.40;99166.76;105913;1274;99229;-74
2022/01/27 09:32:07;;;;;;;20.80;9.80;;;;;;;1.83;78.54;99165.50;106179;1273;96718;-73
2022/01/27 09:34:36;;;;;;;21.70;9.00;;;;;;;1.84;78.25;99160.36;106199;1274;112870;-74
2022/01/27 09:37:04;;;;;;;21.50;9.70;;;;;;;1.87;78.06;99159.56;106151;1274;99209;-73
2022/01/27 09:39:35;;;;;;;24.20;9.80;;;;;;;1.88;78.19;99155.54;106103;1274;108895;-74
2022/01/27 09:42:08;;;;;;;23.80;9.50;;;;;;;1.89;78.34;99155.65;106117;1272;99314;-73
2022/01/27 09:44:40;;;;;;;24.00;10.30;;;;;;;1.88;78.46;99160.05;106110;1274;97326;-74
2022/01/27 09:47:16;;;;;;;24.90;10.40;;;;;;;1.91;78.51;99153.33;106044;1273;112697;-73
2022/01/27 09:49:53;;;;;;;22.70;9.10;;;;;;;1.94;78.27;99143.40;106143;1274;99748;-74
2022/01/27 09:52:24;;;;;;;22.50;9.40;;;;;;;1.97;78.41;99142.44;106066;1274;107735;-74
2022/01/27 09:54:53;;;;;;;21.40;8.90;;;;;;;1.99;78.15;99135.92;106194;1272;97431;-74
2022/01/27 09:57:21;;;;;;;21.30;9.10;;;;;;;1.98;78.12;99123.67;106151;1274;99134;-74
2022/01/27 09:59:50;;;;;;;22.10;8.80;;;;;;;2.01;78.43;99117.45;106006;1274;112802;-73
2022/01/27 10:02:26;;;;;;;24.80;10.30;;;;;;;2.05;78.54;99115.89;106034;1274;99384;-75
2022/01/27 10:04:57;;;;;;;21.50;9.30;;;;;;;2.11;78.40;99111.16;106152;1274;107851;-76
2022/01/27 10:07:40;;;;;;;20.60;9.20;;;;;;;2.15;78.01;99109.06;106248;1274;97220;-77
2022/01/27 10:10:14;;;;;;;20.00;8.90;;;;;;;2.20;78.07;99105.55;106190;1274;99231;-74
2022/01/27 10:12:50;;;;;;;24.50;9.70;;;;;;;2.25;78.08;99106.79;106134;1273;112842;-73
2022/01/27 10:15:24;;;;;;;21.40;9.30;;;;;;;2.30;78.13;99107.45;106210;1274;100676;-74
2022/01/27 10:18:16;;;;;;;23.30;9.50;;;;;;;2.34;78.13;99096.45;106088;1274;107737;-74
2022/01/27 10:21:01;;;;;;;23.00;9.60;;;;;;;2.38;78.24;99095.94;106068;1274;99187;-70
2022/01/27 10:23:35;;;;;;;21.90;9.20;;;;;;;2.40;77.83;99098.34;105984;1274;99306;-72
2022/01/27 10:26:19;;;;;;;23.10;9.80;;;;;;;2.44;78.14;99098.17;106043;1274;112760;-74
2022/01/27 10:29:09;;;;;;;24.00;9.50;;;;;;;2.50;77.94;99090.92;106158;1274;99217;-77
2022/01/27 10:31:42;;;;;;;24.00;10.20;;;;;;;2.52;77.91;99086.11;106152;1273;107724;-72
2022/01/27 10:34:11;;;;;;;25.50;10.50;;;;;;;2.55;77.88;99079.55;106135;1274;96719;-73
2022/01/27 10:36:44;;;;;;;24.20;11.30;;;;;;;2.58;77.99;99076.45;106074;1274;99235;-74
2022/01/27 10:39:18;;;;;;;29.30;13.60;;;;;;;2.61;78.00;99071.26;106083;1274;112298;-72
2022/01/27 10:42:07;;;;;;;38.00;18.40;;;;;;;2.61;78.00;99064.08;106172;1274;96611;-74
2022/01/27 10:44:40;;;;;;;35.90;17.60;;;;;;;2.63;77.94;99058.23;106091;1274;107835;-78
2022/01/27 10:47:27;;;;;;;35.60;17.40;;;;;;;2.64;77.98;99051.54;106171;1274;96616;-78
2022/01/27 10:50:05;;;;;;;49.40;23.60;;;;;;;2.61;78.10;99046.91;106193;1274;98018;-75
2022/01/27 10:55:17;;;;;;;49.40;24.30;;;;;;;2.54;77.65;99042.66;106135;1272;99223;-75
2022/01/27 10:57:50;;;;;;;44.70;22.80;;;;;;;2.52;77.80;99039.19;106041;1274;107779;-74
2022/01/27 11:00:21;;;;;;;49.90;25.40;;;;;;;2.50;77.64;99032.84;106096;1274;99247;-75
2022/01/27 11:02:57;;;;;;;48.00;25.10;;;;;;;2.48;77.43;99033.45;105927;1274;99309;-74
2022/01/27 11:05:29;;;;;;;47.90;24.80;;;;;;;2.46;77.50;99029.63;106043;1271;112926;-74
2022/01/27 11:07:58;;;;;;;50.30;26.90;;;;;;;2.47;77.23;99026.29;106063;1274;99293;-72
2022/01/27 11:10:27;;;;;;;51.50;27.80;;;;;;;2.48;77.20;99028.36;106129;1271;107745;-73
2022/01/27 11:12:58;;;;;;;48.30;24.80;;;;;;;2.48;77.23;99018.18;106084;1274;99265;-72
2022/01/27 11:15:27;;;;;;;49.50;26.40;;;;;;;2.49;77.19;99014.30;106074;1273;99417;-73
2022/01/27 11:17:56;;;;;;;54.70;28.10;;;;;;;2.45;76.86;99013.60;106156;1274;112471;-73
2022/01/27 11:20:53;;;;;;;59.00;30.00;;;;;;;2.41;76.82;99000.66;106173;1273;99913;-72
2022/01/27 11:26:11;;;;;;;60.40;32.50;;;;;;;2.28;76.26;98980.87;106048;1273;99432;-73
2022/01/27 11:28:46;;;;;;;64.10;32.80;;;;;;;2.20;76.27;98977.99;106159;1272;99182;-75
2022/01/27 11:31:29;;;;;;;64.90;34.00;;;;;;;2.21;76.68;98967.83;106022;1274;112725;-73
2022/01/27 11:34:02;;;;;;;63.80;32.60;;;;;;;2.17;76.12;98956.80;106053;1272;97794;-75
2022/01/27 11:36:31;;;;;;;65.10;33.70;;;;;;;2.15;76.29;98957.73;106007;1274;107436;-75
2022/01/27 11:39:03;;;;;;;63.80;34.40;;;;;;;2.13;76.24;98959.04;106080;1274;99315;-77
2022/01/27 11:41:49;;;;;;;64.80;32.90;;;;;;;2.15;76.47;98960.71;106132;1274;99161;-73
2022/01/27 11:44:23;;;;;;;62.70;33.30;;;;;;;2.12;76.09;98956.45;106089;1274;112876;-73
2022/01/27 11:47:10;;;;;;;65.00;33.40;;;;;;;2.12;76.14;98950.67;105978;1274;99396;-73
2022/01/27 11:50:23;;;;;;;66.80;34.20;;;;;;;2.11;76.44;98946.68;105944;1274;107693;-73
2022/01/27 11:52:56;;;;;;;67.60;35.60;;;;;;;2.10;76.13;98943.26;106097;1274;99214;-74
2022/01/27 11:55:24;;;;;;;69.00;34.80;;;;;;;2.09;76.29;98934.88;106048;1274;96598;-72
2022/01/27 11:58:00;;;;;;;74.90;37.80;;;;;;;2.04;75.89;98922.80;105925;1274;112659;-76
2022/01/27 12:00:32;;;;;;;72.10;36.00;;;;;;;1.95;75.99;98917.05;106198;1274;99240;-75
2022/01/27 12:03:04;;;;;;;75.80;37.50;;;;;;;1.91;75.81;98916.71;106092;1273;107754;-74
2022/01/27 12:05:39;;;;;;;;;;;;;;;1.80;75.52;98915.21;106079;1274;99229;-76
2022/01/27 12:08:08;;;;;;;69.80;35.00;;;;;;;1.71;75.78;98915.91;106052;1274;99308;-76
2022/01/27 12:10:49;;;;;;;75.40;39.10;;;;;;;1.67;75.50;98915.71;106050;1274;112812;-74